Bei Facebook empfehlenBei Twitter postenGoogle plusPinterest

Das Wetter im Erzgebirge am 29.09.2016

Wetter und Klima am 29.09.2016 Holzhau im Erzgebirge (630m ü.NN)
Letzte gemessene Temperatur und Uhrzeit der Messung23:45:00 Uhr15.40 °C
Temperatur (Maximum / Höchstwert) und Uhrzeit der Messung15:00:00 Uhr24.90 °C
Temperatur (Minimum / Tiefstwert) und Uhrzeit der Messung04:45:008.50 °C
Errechneter Absolutwert der Temperaturschwankungen zwischen Tmin und Tmax des Tages16.40 K
Errechnete Tagesmitteltemperatur15.59792 °C
Gesamt - Niederschlag des Tages (in flüssiger Form)0.00 Liter / m²
Luftdruck (Maximum / Höchstwert) und Zeitpunkt der Messung02:15:00 Uhr1020.40 hPa
Luftdruck (Minimum / Tiefstwert) und Zeitpunkt der Messung23:45:00 Uhr1012.00 hPa
Errechneter Absolutwert der Luftdruckschwankungen des Tages8.40 hPa
Höchste gemessene Windgeschwindigkeit und Uhrzeit der Messung23:45:00 Uhr0.00 km/h
Errechnete Windhäufigkeit in Relation zu den Messwerten des Tages0.00000 %
Niedrigste Windkühle (Windchill) und Zeitpunkt der Messung04:45:00 Uhr8.50 °C
Taupunkt (Maximum / Höchstwert) und Uhrzeit der Messung16:15:00 Uhr13.50 °C
Taupunkt (Minimum / Tiefstwert) und Uhrzeit der Messung04:45:006.80 °C
Anzahl der automatisch eingelesenen Messwerte 96

Detaillierte Wetter- und Klima- Messwerte für den 29.09.2016 in Holzhau im Erzgebirge (630m ü.NN)
ZeitTemperaturLuftdruckRel. LuftfeuchteWindWindrichtungWindchillTaupunktNiederschlag l/m²
23:45:0015.40 °C1012.00 hPa76.00 %11.20 °C 
23:30:0014.90 °C1012.10 hPa78.00 %11.10 °C 
23:15:0014.40 °C1012.10 hPa79.00 %10.80 °C 
23:00:0014.10 °C1012.20 hPa80.00 %10.70 °C 
22:45:0013.90 °C1012.30 hPa81.00 %10.70 °C 
22:30:0013.50 °C1012.10 hPa82.00 %10.50 °C 
22:15:0012.50 °C1012.30 hPa82.00 %9.50 °C 
22:00:0011.90 °C1012.50 hPa81.00 %8.70 °C 
21:45:0012.10 °C1012.50 hPa80.00 %8.80 °C 
21:30:0012.30 °C1012.40 hPa80.00 %9.00 °C 
21:15:0012.60 °C1012.60 hPa79.00 %9.10 °C 
21:00:0012.90 °C1012.40 hPa78.00 %9.20 °C 
20:45:0013.30 °C1012.50 hPa77.00 %9.40 °C 
20:30:0013.50 °C1012.50 hPa75.00 %9.20 °C 
20:15:0014.10 °C1012.60 hPa74.00 %9.50 °C 
20:00:0014.50 °C1012.90 hPa72.00 %9.50 °C 
19:45:0014.90 °C1012.80 hPa71.00 %9.70 °C 
19:30:0015.20 °C1013.10 hPa69.00 %9.60 °C 
19:15:0015.80 °C1013.10 hPa66.00 %9.50 °C 
19:00:0016.90 °C1013.40 hPa64.00 %10.10 °C 
18:45:0017.80 °C1013.50 hPa63.00 %10.70 °C 
18:30:0018.80 °C1013.50 hPa61.00 %11.10 °C 
18:15:0019.90 °C1013.40 hPa59.00 %11.70 °C 
18:00:0020.90 °C1013.60 hPa58.00 %12.30 °C 
17:45:0021.40 °C1013.80 hPa58.00 %12.80 °C 
17:30:0021.80 °C1014.00 hPa57.00 %12.90 °C 
17:15:0021.80 °C1014.10 hPa57.00 %12.90 °C 
17:00:0021.90 °C1014.20 hPa56.00 %12.70 °C 
16:45:0022.40 °C1014.20 hPa55.00 %12.90 °C 
16:30:0022.90 °C1014.40 hPa55.00 %13.40 °C 
16:15:0023.30 °C1014.50 hPa54.00 %13.50 °C 
16:00:0023.60 °C1014.50 hPa53.00 %13.50 °C 
15:45:0024.20 °C1014.80 hPa51.00 %13.40 °C 
15:30:0024.20 °C1014.80 hPa49.00 %12.80 °C 
15:15:0024.70 °C1015.00 hPa48.00 %13.00 °C 
15:00:0024.90 °C1015.20 hPa47.00 %12.80 °C 
14:45:0024.90 °C1015.40 hPa42.00 %11.10 °C 
14:30:0024.90 °C1015.90 hPa43.00 %11.50 °C 
14:15:0024.50 °C1016.00 hPa42.00 %10.80 °C 
14:00:0024.70 °C1016.10 hPa42.00 %10.90 °C 
13:45:0023.80 °C1016.30 hPa42.00 %10.10 °C 
13:30:0023.70 °C1016.50 hPa40.00 %9.30 °C 
13:15:0024.30 °C1016.70 hPa40.00 %9.80 °C 
13:00:0023.90 °C1016.80 hPa40.00 %9.50 °C 
12:45:0023.40 °C1016.90 hPa40.00 %9.00 °C 
12:30:0023.00 °C1017.10 hPa39.00 %8.30 °C 
12:15:0022.80 °C1017.20 hPa40.00 %8.50 °C 
12:00:0022.20 °C1017.30 hPa42.00 %8.70 °C 
11:45:0022.00 °C1017.40 hPa41.00 %8.20 °C 
11:30:0021.90 °C1017.50 hPa41.00 %8.10 °C 
11:15:0021.80 °C1017.50 hPa44.00 %9.00 °C 
11:00:0021.50 °C1017.60 hPa45.00 %9.10 °C 
10:45:0021.10 °C1017.70 hPa53.00 %11.20 °C 
10:30:0020.30 °C1017.70 hPa60.00 %12.30 °C 
10:15:0018.60 °C1017.90 hPa67.00 %12.40 °C 
10:00:0017.30 °C1017.70 hPa72.00 %12.20 °C 
09:45:0016.40 °C1017.80 hPa79.00 %12.80 °C 
09:30:0015.50 °C1017.90 hPa83.00 %12.60 °C 
09:15:0014.40 °C1018.10 hPa87.00 %12.30 °C 
09:00:0013.30 °C1018.10 hPa89.00 %11.50 °C 
08:45:0011.80 °C1018.20 hPa89.00 %10.00 °C 
08:30:0010.90 °C1018.10 hPa90.00 %9.30 °C 
08:15:0010.40 °C1018.50 hPa90.00 %8.80 °C 
08:00:009.90 °C1018.60 hPa90.00 %8.30 °C 
07:45:009.60 °C1018.60 hPa89.00 %7.90 °C 
07:30:0010.10 °C1018.50 hPa90.00 %8.50 °C 
07:15:0010.20 °C1018.60 hPa90.00 %8.60 °C 
07:00:0010.20 °C1018.70 hPa90.00 %8.60 °C 
06:45:0010.10 °C1018.70 hPa90.00 %8.50 °C 
06:30:009.80 °C1018.90 hPa90.00 %8.20 °C 
06:15:009.50 °C1018.90 hPa91.00 %8.10 °C 
06:00:009.30 °C1019.00 hPa91.00 %7.90 °C 
05:45:009.10 °C1019.00 hPa91.00 %7.70 °C 
05:30:008.90 °C1019.20 hPa90.00 %7.40 °C 
05:15:008.70 °C1019.30 hPa90.00 %7.20 °C 
05:00:008.60 °C1019.40 hPa90.00 %7.10 °C 
04:45:008.50 °C1019.50 hPa89.00 %6.80 °C 
04:30:008.50 °C1019.40 hPa89.00 %6.80 °C 
04:15:008.60 °C1019.70 hPa89.00 %6.90 °C 
04:00:008.70 °C1019.70 hPa88.00 %6.80 °C 
03:45:008.80 °C1019.70 hPa88.00 %6.90 °C 
03:30:008.90 °C1019.90 hPa87.00 %6.90 °C 
03:15:008.90 °C1020.20 hPa87.00 %6.90 °C 
03:00:009.00 °C1020.30 hPa87.00 %7.00 °C 
02:45:009.10 °C1020.30 hPa86.00 %6.90 °C 
02:30:009.30 °C1020.30 hPa86.00 %7.10 °C 
02:15:009.40 °C1020.40 hPa85.00 %7.00 °C 
02:00:009.60 °C1020.30 hPa84.00 %7.00 °C 
01:45:009.90 °C1020.30 hPa84.00 %7.30 °C 
01:30:0010.30 °C1020.40 hPa83.00 %7.50 °C 
01:15:0010.90 °C1020.30 hPa83.00 %8.10 °C 
01:00:0011.30 °C1020.30 hPa83.00 %8.50 °C 
00:45:0011.60 °C1020.30 hPa83.00 %8.80 °C 
00:30:0011.70 °C1020.30 hPa82.00 %8.70 °C 
00:15:0011.80 °C1020.20 hPa82.00 %8.80 °C 
00:00:0012.10 °C1020.30 hPa82.00 %9.10 °C 

Permanenter Link zu dieser Seite: Wetter im Erzgebirge am 29.09.2016
Performance-Info: Die Erstellung der Seite / Statistik(en) / Tabelle(n) erforderte 5 Datenbankserver-Abfrage(n) und dauerte 101 Millisekunden. (Dieser Messwert ist von der Gesamt-Auslastung des Servers abhängig.)
Erzgebirge - Wetter | Erzgebirge - Wetter (Mobilgeräte) | Komplette Klimadatenbank